Smith Reynolds Airport Winston Salem US
ICAO: KINT
IATA: INT
Category: Medium
Scheduled Services: No

Elevation: 969 ft
TransAlt. 18000 ft.

Airport Communications:
GREENSBORO APP/DEP:124.35
ATIS:121.3
CTAF:123.75
GND:128.25
WINSTON SALEM TWR:123.75
UNICOM:122.95

KINT Zoom In..

Runways:

(A) RW 04 length 3938 ft width 150 ft
---- / hdg 38

(B) RW 15 length 6655 ft width 150 ft
---- / hdg 152

(C) RW 22 length 3938 ft width 150 ft
---- / hdg 218

(D) RW 33 length 6655 ft width 150 ft
ILS 110.30 / hdg 332

Location; KINT
Day. 09 / Time. 22.54 Zulu
* Altimeter: 29.91
* Temperature: 29° c. 84.2°f.
* Wind from: 050° Speed 05 kn.
Dewpoint: 22° c.
Visibility: 10 Statute Miles.
Clouds: Clear (automated report).

KINT 092254Z 05005KT 10SM CLR 29/22 A2991 RMK AO2 SLP117 T02940217

Going to: --> -->


Wind From 050°
Speed 05 kn.

 
 
jpsmedia worldairports.se 2020   terms of use